sensor_id;sensor_type;location;lat;lon;timestamp;pressure;altitude;pressure_sealevel;temperature;humidity
60852;BME280;48553;50.766;2.900;2023-09-30T00:02:06;101837.06;;;15.47;79.65
60852;BME280;48553;50.766;2.900;2023-09-30T00:05:06;101829.44;;;15.44;79.82
60852;BME280;48553;50.766;2.900;2023-09-30T00:08:08;101830.25;;;15.44;79.82
60852;BME280;48553;50.766;2.900;2023-09-30T00:11:09;101830.13;;;15.41;80.01
60852;BME280;48553;50.766;2.900;2023-09-30T00:14:10;101824.94;;;15.39;80.08
60852;BME280;48553;50.766;2.900;2023-09-30T00:17:10;101820.25;;;15.40;80.23
60852;BME280;48553;50.766;2.900;2023-09-30T00:20:10;101828.88;;;15.38;80.14
60852;BME280;48553;50.766;2.900;2023-09-30T00:23:11;101839.44;;;15.36;80.18
60852;BME280;48553;50.766;2.900;2023-09-30T00:26:12;101821.28;;;15.35;79.92
60852;BME280;48553;50.766;2.900;2023-09-30T00:29:13;101815.75;;;15.35;80.11
60852;BME280;48553;50.766;2.900;2023-09-30T00:32:13;101844.84;;;15.33;80.04
60852;BME280;48553;50.766;2.900;2023-09-30T00:35:13;101838.19;;;15.34;80.20
60852;BME280;48553;50.766;2.900;2023-09-30T00:38:14;101831.72;;;15.30;80.05
60852;BME280;48553;50.766;2.900;2023-09-30T00:41:15;101840.00;;;15.30;80.28
60852;BME280;48553;50.766;2.900;2023-09-30T00:44:15;101838.03;;;15.30;80.20
60852;BME280;48553;50.766;2.900;2023-09-30T00:47:16;101850.25;;;15.29;80.20
60852;BME280;48553;50.766;2.900;2023-09-30T00:50:19;101855.63;;;15.25;80.32
60852;BME280;48553;50.766;2.900;2023-09-30T00:53:19;101853.22;;;15.24;80.22
60852;BME280;48553;50.766;2.900;2023-09-30T00:56:23;101857.47;;;15.21;80.39
60852;BME280;48553;50.766;2.900;2023-09-30T00:59:24;101841.25;;;15.20;80.10
60852;BME280;48553;50.766;2.900;2023-09-30T01:02:26;101855.06;;;15.20;80.09
60852;BME280;48553;50.766;2.900;2023-09-30T01:05:27;101864.16;;;15.20;80.09
60852;BME280;48553;50.766;2.900;2023-09-30T01:08:27;101865.63;;;15.18;79.93
60852;BME280;48553;50.766;2.900;2023-09-30T01:11:28;101858.47;;;15.17;80.03
60852;BME280;48553;50.766;2.900;2023-09-30T01:14:32;101853.31;;;15.15;79.88
60852;BME280;48553;50.766;2.900;2023-09-30T01:17:35;101863.41;;;15.11;80.03
60852;BME280;48553;50.766;2.900;2023-09-30T01:20:35;101875.25;;;15.12;79.81
60852;BME280;48553;50.766;2.900;2023-09-30T01:23:36;101865.25;;;15.07;79.97
60852;BME280;48553;50.766;2.900;2023-09-30T01:26:36;101867.19;;;15.07;80.04
60852;BME280;48553;50.766;2.900;2023-09-30T01:29:37;101867.19;;;15.07;80.07
60852;BME280;48553;50.766;2.900;2023-09-30T01:32:40;101877.44;;;15.06;80.05
60852;BME280;48553;50.766;2.900;2023-09-30T01:35:40;101871.91;;;15.06;79.96
60852;BME280;48553;50.766;2.900;2023-09-30T01:38:41;101865.13;;;15.03;80.06
60852;BME280;48553;50.766;2.900;2023-09-30T01:41:41;101861.19;;;15.04;80.11
60852;BME280;48553;50.766;2.900;2023-09-30T01:44:41;101858.44;;;15.04;80.30
60852;BME280;48553;50.766;2.900;2023-09-30T01:47:42;101866.25;;;15.02;80.23
60852;BME280;48553;50.766;2.900;2023-09-30T01:50:42;101866.94;;;14.99;80.43
60852;BME280;48553;50.766;2.900;2023-09-30T01:53:42;101868.06;;;14.98;80.28
60852;BME280;48553;50.766;2.900;2023-09-30T01:56:43;101864.03;;;14.96;80.33
60852;BME280;48553;50.766;2.900;2023-09-30T01:59:43;101856.22;;;14.98;80.46
60852;BME280;48553;50.766;2.900;2023-09-30T02:02:44;101867.59;;;14.96;80.53
60852;BME280;48553;50.766;2.900;2023-09-30T02:05:44;101850.13;;;14.92;80.45
60852;BME280;48553;50.766;2.900;2023-09-30T02:08:44;101854.16;;;14.95;80.51
60852;BME280;48553;50.766;2.900;2023-09-30T02:11:45;101862.75;;;14.93;80.39
60852;BME280;48553;50.766;2.900;2023-09-30T02:14:45;101851.25;;;14.91;80.43
60852;BME280;48553;50.766;2.900;2023-09-30T02:17:46;101851.25;;;14.91;80.57
60852;BME280;48553;50.766;2.900;2023-09-30T02:20:49;101862.28;;;14.91;80.57
60852;BME280;48553;50.766;2.900;2023-09-30T02:23:50;101869.31;;;14.89;80.79
60852;BME280;48553;50.766;2.900;2023-09-30T02:26:55;101862.97;;;14.88;80.53
60852;BME280;48553;50.766;2.900;2023-09-30T02:29:55;101851.13;;;14.88;80.54
60852;BME280;48553;50.766;2.900;2023-09-30T02:32:56;101849.03;;;14.85;80.58
60852;BME280;48553;50.766;2.900;2023-09-30T02:35:57;101866.75;;;14.83;80.44
60852;BME280;48553;50.766;2.900;2023-09-30T02:38:57;101865.94;;;14.83;80.43
60852;BME280;48553;50.766;2.900;2023-09-30T02:41:58;101872.94;;;14.80;80.14
60852;BME280;48553;50.766;2.900;2023-09-30T02:45:02;101866.59;;;14.80;80.31
60852;BME280;48553;50.766;2.900;2023-09-30T02:48:03;101873.28;;;14.79;80.22
60852;BME280;48553;50.766;2.900;2023-09-30T02:51:04;101886.28;;;14.78;80.29
60852;BME280;48553;50.766;2.900;2023-09-30T02:54:04;101861.78;;;14.77;80.30
60852;BME280;48553;50.766;2.900;2023-09-30T02:57:05;101858.06;;;14.73;80.30
60852;BME280;48553;50.766;2.900;2023-09-30T03:00:06;101871.38;;;14.71;80.44
60852;BME280;48553;50.766;2.900;2023-09-30T03:03:23;101860.69;;;14.69;80.39
60852;BME280;48553;50.766;2.900;2023-09-30T03:06:25;101871.72;;;14.69;80.16
60852;BME280;48553;50.766;2.900;2023-09-30T03:09:26;101863.00;;;14.67;80.24
60852;BME280;48553;50.766;2.900;2023-09-30T03:12:26;101861.03;;;14.68;80.36
60852;BME280;48553;50.766;2.900;2023-09-30T03:15:27;101855.84;;;14.66;80.38
60852;BME280;48553;50.766;2.900;2023-09-30T03:18:28;101848.72;;;14.65;80.44
60852;BME280;48553;50.766;2.900;2023-09-30T03:21:31;101847.91;;;14.65;80.49
60852;BME280;48553;50.766;2.900;2023-09-30T03:24:31;101842.38;;;14.65;80.38
60852;BME280;48553;50.766;2.900;2023-09-30T03:27:33;101838.00;;;14.64;80.68
60852;BME280;48553;50.766;2.900;2023-09-30T03:30:34;101843.53;;;14.64;80.55
60852;BME280;48553;50.766;2.900;2023-09-30T03:33:35;101861.09;;;14.59;80.54
60852;BME280;48553;50.766;2.900;2023-09-30T03:36:35;101857.53;;;14.58;80.42
60852;BME280;48553;50.766;2.900;2023-09-30T03:39:36;101852.34;;;14.57;80.48
60852;BME280;48553;50.766;2.900;2023-09-30T03:42:36;101850.75;;;14.56;80.43
60852;BME280;48553;50.766;2.900;2023-09-30T03:45:36;101859.34;;;14.54;80.41
60852;BME280;48553;50.766;2.900;2023-09-30T03:48:39;101847.81;;;14.52;80.50
60852;BME280;48553;50.766;2.900;2023-09-30T03:51:40;101845.84;;;14.53;80.37
60852;BME280;48553;50.766;2.900;2023-09-30T03:54:41;101851.72;;;14.51;80.70
60852;BME280;48553;50.766;2.900;2023-09-30T03:57:42;101864.34;;;14.52;80.64
60852;BME280;48553;50.766;2.900;2023-09-30T04:00:42;101866.97;;;14.49;80.75
60852;BME280;48553;50.766;2.900;2023-09-30T04:03:42;101870.06;;;14.47;80.67
60852;BME280;48553;50.766;2.900;2023-09-30T04:06:43;101875.13;;;14.45;80.75
60852;BME280;48553;50.766;2.900;2023-09-30T04:09:44;101863.59;;;14.43;80.56
60852;BME280;48553;50.766;2.900;2023-09-30T04:12:44;101871.09;;;14.43;80.61
60852;BME280;48553;50.766;2.900;2023-09-30T04:15:44;101862.00;;;14.42;80.66
60852;BME280;48553;50.766;2.900;2023-09-30T04:18:46;101843.34;;;14.39;80.90
60852;BME280;48553;50.766;2.900;2023-09-30T04:21:47;101844.50;;;14.38;80.64
60852;BME280;48553;50.766;2.900;2023-09-30T04:24:47;101839.31;;;14.36;80.71
60852;BME280;48553;50.766;2.900;2023-09-30T04:27:50;101836.88;;;14.35;80.66
60852;BME280;48553;50.766;2.900;2023-09-30T04:30:51;101831.38;;;14.35;80.87
60852;BME280;48553;50.766;2.900;2023-09-30T04:33:51;101835.28;;;14.34;80.82
60852;BME280;48553;50.766;2.900;2023-09-30T04:36:51;101843.88;;;14.32;80.84
60852;BME280;48553;50.766;2.900;2023-09-30T04:39:52;101849.06;;;14.34;80.88
60852;BME280;48553;50.766;2.900;2023-09-30T04:42:53;101850.53;;;14.31;80.83
60852;BME280;48553;50.766;2.900;2023-09-30T04:45:58;101837.09;;;14.30;80.77
60852;BME280;48553;50.766;2.900;2023-09-30T04:48:59;101846.50;;;14.29;80.98
60852;BME280;48553;50.766;2.900;2023-09-30T04:51:59;101863.69;;;14.26;81.11
60852;BME280;48553;50.766;2.900;2023-09-30T04:55:00;101860.94;;;14.26;80.91
60852;BME280;48553;50.766;2.900;2023-09-30T04:58:01;101849.44;;;14.24;80.91
60852;BME280;48553;50.766;2.900;2023-09-30T05:01:02;101848.63;;;14.23;80.97
60852;BME280;48553;50.766;2.900;2023-09-30T05:04:02;101853.69;;;14.21;81.08
60852;BME280;48553;50.766;2.900;2023-09-30T05:07:02;101852.06;;;14.20;81.16
60852;BME280;48553;50.766;2.900;2023-09-30T05:10:04;101830.81;;;14.20;81.27
60852;BME280;48553;50.766;2.900;2023-09-30T05:13:11;101827.25;;;14.20;81.20
60852;BME280;48553;50.766;2.900;2023-09-30T05:16:12;101830.81;;;14.20;81.35
60852;BME280;48553;50.766;2.900;2023-09-30T05:19:13;101831.97;;;14.19;81.25
60852;BME280;48553;50.766;2.900;2023-09-30T05:22:13;101825.16;;;14.17;81.34
60852;BME280;48553;50.766;2.900;2023-09-30T05:25:16;101817.72;;;14.17;81.39
60852;BME280;48553;50.766;2.900;2023-09-30T05:28:17;101828.75;;;14.17;81.29
60852;BME280;48553;50.766;2.900;2023-09-30T05:31:18;101850.78;;;14.17;81.48
60852;BME280;48553;50.766;2.900;2023-09-30T05:34:19;101854.69;;;14.16;81.41
60852;BME280;48553;50.766;2.900;2023-09-30T05:37:21;101858.91;;;14.14;81.49
60852;BME280;48553;50.766;2.900;2023-09-30T05:40:22;101877.88;;;14.15;81.30
60852;BME280;48553;50.766;2.900;2023-09-30T05:43:25;101881.63;;;14.11;81.41
60852;BME280;48553;50.766;2.900;2023-09-30T05:46:27;101878.09;;;14.10;81.50
60852;BME280;48553;50.766;2.900;2023-09-30T05:49:27;101874.84;;;14.08;81.57
60852;BME280;48553;50.766;2.900;2023-09-30T05:52:28;101875.66;;;14.09;81.55
60852;BME280;48553;50.766;2.900;2023-09-30T05:55:28;101874.38;;;14.06;81.61
60852;BME280;48553;50.766;2.900;2023-09-30T05:58:29;101890.91;;;14.06;81.61
60852;BME280;48553;50.766;2.900;2023-09-30T06:01:29;101870.47;;;14.07;81.66
60852;BME280;48553;50.766;2.900;2023-09-30T06:04:30;101882.63;;;14.06;81.63
60852;BME280;48553;50.766;2.900;2023-09-30T06:07:30;101886.88;;;14.04;81.82
60852;BME280;48553;50.766;2.900;2023-09-30T06:10:31;101879.72;;;14.03;81.55
60852;BME280;48553;50.766;2.900;2023-09-30T06:13:34;101878.59;;;14.04;81.79
60852;BME280;48553;50.766;2.900;2023-09-30T06:16:34;101876.66;;;14.04;81.67
60852;BME280;48553;50.766;2.900;2023-09-30T06:19:35;101874.22;;;14.03;82.02
60852;BME280;48553;50.766;2.900;2023-09-30T06:22:35;101879.41;;;14.04;82.09
60852;BME280;48553;50.766;2.900;2023-09-30T06:25:36;101881.00;;;14.05;82.28
60852;BME280;48553;50.766;2.900;2023-09-30T06:28:36;101881.84;;;14.06;82.26
60852;BME280;48553;50.766;2.900;2023-09-30T06:31:41;101903.06;;;14.05;82.32
60852;BME280;48553;50.766;2.900;2023-09-30T06:34:41;101916.03;;;14.05;82.29
60852;BME280;48553;50.766;2.900;2023-09-30T06:37:42;101924.00;;;14.06;82.49
60852;BME280;48553;50.766;2.900;2023-09-30T06:40:43;101916.84;;;14.05;82.78
60852;BME280;48553;50.766;2.900;2023-09-30T06:43:44;101906.28;;;14.07;82.44
60852;BME280;48553;50.766;2.900;2023-09-30T06:46:44;101909.06;;;14.07;82.65
60852;BME280;48553;50.766;2.900;2023-09-30T06:49:45;101909.53;;;14.09;82.57
60852;BME280;48553;50.766;2.900;2023-09-30T06:52:46;101900.13;;;14.10;82.51
60852;BME280;48553;50.766;2.900;2023-09-30T06:55:49;101918.28;;;14.11;82.66
60852;BME280;48553;50.766;2.900;2023-09-30T06:58:51;101915.53;;;14.11;82.57
60852;BME280;48553;50.766;2.900;2023-09-30T07:01:51;101921.53;;;14.13;82.56
60852;BME280;48553;50.766;2.900;2023-09-30T07:04:52;101925.06;;;14.14;82.70
60852;BME280;48553;50.766;2.900;2023-09-30T07:07:53;101920.38;;;14.14;82.96
60852;BME280;48553;50.766;2.900;2023-09-30T07:10:53;101920.38;;;14.14;82.87
60852;BME280;48553;50.766;2.900;2023-09-30T07:13:54;101921.31;;;14.18;82.96
60852;BME280;48553;50.766;2.900;2023-09-30T07:16:54;101914.34;;;14.21;82.96
60852;BME280;48553;50.766;2.900;2023-09-30T07:19:55;101925.03;;;14.23;82.88
60852;BME280;48553;50.766;2.900;2023-09-30T07:22:55;101922.25;;;14.31;83.10
60852;BME280;48553;50.766;2.900;2023-09-30T07:25:56;101934.09;;;14.32;83.24
60852;BME280;48553;50.766;2.900;2023-09-30T07:28:57;101939.41;;;14.37;83.34
60852;BME280;48553;50.766;2.900;2023-09-30T07:31:58;101948.31;;;14.43;83.55
60852;BME280;48553;50.766;2.900;2023-09-30T07:34:58;101956.06;;;14.49;83.68
60852;BME280;48553;50.766;2.900;2023-09-30T07:37:59;101959.75;;;14.53;83.58
60852;BME280;48553;50.766;2.900;2023-09-30T07:41:00;101963.50;;;14.57;83.37
60852;BME280;48553;50.766;2.900;2023-09-30T07:44:01;101958.81;;;14.58;83.29
60852;BME280;48553;50.766;2.900;2023-09-30T07:47:01;101956.06;;;14.58;83.60
60852;BME280;48553;50.766;2.900;2023-09-30T07:50:04;101955.06;;;14.63;83.83
60852;BME280;48553;50.766;2.900;2023-09-30T07:53:09;101958.25;;;14.65;84.05
60852;BME280;48553;50.766;2.900;2023-09-30T07:56:13;101958.88;;;14.70;83.55
60852;BME280;48553;50.766;2.900;2023-09-30T07:59:14;101955.59;;;14.77;83.64
60852;BME280;48553;50.766;2.900;2023-09-30T08:02:15;101952.16;;;14.80;83.31
60852;BME280;48553;50.766;2.900;2023-09-30T08:05:16;101952.78;;;14.86;83.23
60852;BME280;48553;50.766;2.900;2023-09-30T08:08:17;101949.81;;;14.91;83.14
60852;BME280;48553;50.766;2.900;2023-09-30T08:11:18;101973.66;;;14.95;83.07
60852;BME280;48553;50.766;2.900;2023-09-30T08:14:20;101970.38;;;15.02;83.05
60852;BME280;48553;50.766;2.900;2023-09-30T08:17:21;101965.13;;;15.09;82.80
60852;BME280;48553;50.766;2.900;2023-09-30T08:20:21;101974.03;;;15.15;83.00
60852;BME280;48553;50.766;2.900;2023-09-30T08:23:22;101979.81;;;15.22;85.28
60852;BME280;48553;50.766;2.900;2023-09-30T08:26:22;101986.41;;;15.30;84.33
60852;BME280;48553;50.766;2.900;2023-09-30T08:29:23;101982.41;;;15.39;84.76
60852;BME280;48553;50.766;2.900;2023-09-30T08:32:24;101973.72;;;15.50;85.77
60852;BME280;48553;50.766;2.900;2023-09-30T08:35:24;101970.50;;;15.60;85.50
60852;BME280;48553;50.766;2.900;2023-09-30T08:38:25;101979.53;;;15.69;86.18
60852;BME280;48553;50.766;2.900;2023-09-30T08:41:35;101978.81;;;15.81;85.72
60852;BME280;48553;50.766;2.900;2023-09-30T08:44:37;101972.84;;;15.91;85.58
60852;BME280;48553;50.766;2.900;2023-09-30T08:47:40;101975.84;;;15.98;84.97
60852;BME280;48553;50.766;2.900;2023-09-30T08:50:41;101971.47;;;16.10;84.33
60852;BME280;48553;50.766;2.900;2023-09-30T08:53:44;101972.53;;;16.17;84.48
60852;BME280;48553;50.766;2.900;2023-09-30T08:56:47;101980.63;;;16.22;83.70
60852;BME280;48553;50.766;2.900;2023-09-30T08:59:49;101999.19;;;16.34;83.66
60852;BME280;48553;50.766;2.900;2023-09-30T09:02:50;101998.84;;;16.48;84.03
60852;BME280;48553;50.766;2.900;2023-09-30T09:05:55;102013.38;;;16.57;83.41
60852;BME280;48553;50.766;2.900;2023-09-30T09:09:13;102009.69;;;16.65;83.22
60852;BME280;48553;50.766;2.900;2023-09-30T09:12:19;102015.22;;;16.78;83.34
60852;BME280;48553;50.766;2.900;2023-09-30T09:15:22;102012.69;;;16.85;82.94
60852;BME280;48553;50.766;2.900;2023-09-30T09:18:32;102021.25;;;16.92;82.44
60852;BME280;48553;50.766;2.900;2023-09-30T09:21:36;102013.16;;;16.99;83.30
60852;BME280;48553;50.766;2.900;2023-09-30T09:24:37;102010.00;;;17.13;82.97
60852;BME280;48553;50.766;2.900;2023-09-30T09:27:39;102025.59;;;17.18;82.56
60852;BME280;48553;50.766;2.900;2023-09-30T09:30:39;102032.94;;;17.26;82.07
60852;BME280;48553;50.766;2.900;2023-09-30T09:33:41;102014.81;;;17.28;82.08
60852;BME280;48553;50.766;2.900;2023-09-30T09:36:43;102023.44;;;17.39;81.56
60852;BME280;48553;50.766;2.900;2023-09-30T09:39:54;102015.34;;;17.46;81.50
60852;BME280;48553;50.766;2.900;2023-09-30T09:42:56;102025.47;;;17.54;81.58
60852;BME280;48553;50.766;2.900;2023-09-30T09:45:57;102030.97;;;17.67;81.06
60852;BME280;48553;50.766;2.900;2023-09-30T09:48:58;102011.84;;;17.78;80.72
60852;BME280;48553;50.766;2.900;2023-09-30T09:52:00;102011.38;;;17.88;79.67
60852;BME280;48553;50.766;2.900;2023-09-30T09:55:02;102015.69;;;18.01;80.22
60852;BME280;48553;50.766;2.900;2023-09-30T09:58:03;102016.06;;;18.15;79.94
60852;BME280;48553;50.766;2.900;2023-09-30T10:01:09;102006.66;;;18.20;79.84
60852;BME280;48553;50.766;2.900;2023-09-30T10:04:13;102004.16;;;18.31;79.72
60852;BME280;48553;50.766;2.900;2023-09-30T10:07:39;102005.06;;;18.51;79.43
60852;BME280;48553;50.766;2.900;2023-09-30T10:10:40;102008.91;;;18.62;79.53
60852;BME280;48553;50.766;2.900;2023-09-30T10:13:53;102007.28;;;18.77;78.96
60852;BME280;48553;50.766;2.900;2023-09-30T10:16:55;102009.59;;;18.91;78.42
60852;BME280;48553;50.766;2.900;2023-09-30T10:20:06;102000.91;;;18.92;78.06
60852;BME280;48553;50.766;2.900;2023-09-30T10:23:26;101986.31;;;19.15;77.26
60852;BME280;48553;50.766;2.900;2023-09-30T10:26:27;101982.72;;;19.14;76.97
60852;BME280;48553;50.766;2.900;2023-09-30T10:29:40;101982.59;;;19.27;77.39
60852;BME280;48553;50.766;2.900;2023-09-30T10:35:52;101979.63;;;19.39;76.51
60852;BME280;48553;50.766;2.900;2023-09-30T10:38:53;101970.06;;;19.56;76.45
60852;BME280;48553;50.766;2.900;2023-09-30T10:41:53;101970.94;;;19.60;76.00
60852;BME280;48553;50.766;2.900;2023-09-30T10:44:54;101975.13;;;19.70;75.47
60852;BME280;48553;50.766;2.900;2023-09-30T10:47:54;101976.06;;;19.77;75.53
60852;BME280;48553;50.766;2.900;2023-09-30T10:50:56;101974.16;;;19.81;75.02
60852;BME280;48553;50.766;2.900;2023-09-30T10:54:01;101965.38;;;20.02;73.91
60852;BME280;48553;50.766;2.900;2023-09-30T10:57:02;101966.34;;;20.14;73.70
60852;BME280;48553;50.766;2.900;2023-09-30T11:00:07;101968.09;;;20.22;73.75
60852;BME280;48553;50.766;2.900;2023-09-30T11:03:11;101947.41;;;20.23;73.72
60852;BME280;48553;50.766;2.900;2023-09-30T11:06:16;101954.53;;;20.20;73.24
60852;BME280;48553;50.766;2.900;2023-09-30T11:09:22;101949.59;;;20.33;73.43
60852;BME280;48553;50.766;2.900;2023-09-30T11:12:22;101940.38;;;20.56;72.36
60852;BME280;48553;50.766;2.900;2023-09-30T11:15:24;101931.81;;;20.68;71.99
60852;BME280;48553;50.766;2.900;2023-09-30T11:18:25;101922.28;;;20.69;71.67
60852;BME280;48553;50.766;2.900;2023-09-30T11:21:26;101927.03;;;20.69;71.76
60852;BME280;48553;50.766;2.900;2023-09-30T11:24:26;101917.97;;;20.75;70.78
60852;BME280;48553;50.766;2.900;2023-09-30T11:27:29;101911.97;;;20.73;70.95
60852;BME280;48553;50.766;2.900;2023-09-30T11:30:31;101928.31;;;20.71;71.29
60852;BME280;48553;50.766;2.900;2023-09-30T11:33:32;101940.25;;;20.72;70.97
60852;BME280;48553;50.766;2.900;2023-09-30T11:37:00;101941.75;;;20.65;71.61
60852;BME280;48553;50.766;2.900;2023-09-30T11:40:12;101941.03;;;20.72;71.32
60852;BME280;48553;50.766;2.900;2023-09-30T11:43:13;101946.75;;;20.83;71.00
60852;BME280;48553;50.766;2.900;2023-09-30T11:46:14;101943.78;;;20.99;70.62
60852;BME280;48553;50.766;2.900;2023-09-30T11:49:33;101958.91;;;20.98;70.75
60852;BME280;48553;50.766;2.900;2023-09-30T11:52:38;101945.72;;;20.95;70.61
60852;BME280;48553;50.766;2.900;2023-09-30T11:55:40;101945.47;;;21.07;70.29
60852;BME280;48553;50.766;2.900;2023-09-30T11:58:41;101934.03;;;21.16;70.48
60852;BME280;48553;50.766;2.900;2023-09-30T12:01:41;101937.38;;;21.28;69.86
60852;BME280;48553;50.766;2.900;2023-09-30T12:04:45;101929.53;;;21.75;67.90
60852;BME280;48553;50.766;2.900;2023-09-30T12:07:45;101924.28;;;21.70;68.40
60852;BME280;48553;50.766;2.900;2023-09-30T12:10:48;101923.00;;;21.60;68.76
60852;BME280;48553;50.766;2.900;2023-09-30T12:13:50;101923.50;;;21.69;68.97
60852;BME280;48553;50.766;2.900;2023-09-30T12:16:50;101919.81;;;21.58;69.52
60852;BME280;48553;50.766;2.900;2023-09-30T12:19:51;101927.19;;;21.43;68.88
60852;BME280;48553;50.766;2.900;2023-09-30T12:22:51;101909.69;;;21.43;68.11
60852;BME280;48553;50.766;2.900;2023-09-30T12:25:53;101921.94;;;21.35;67.95
60852;BME280;48553;50.766;2.900;2023-09-30T12:28:55;101912.94;;;21.18;69.48
60852;BME280;48553;50.766;2.900;2023-09-30T12:31:56;101905.78;;;21.17;69.22
60852;BME280;48553;50.766;2.900;2023-09-30T12:34:56;101900.56;;;21.16;69.22
60852;BME280;48553;50.766;2.900;2023-09-30T12:37:56;101910.84;;;21.08;69.03
60852;BME280;48553;50.766;2.900;2023-09-30T12:40:57;101911.59;;;21.05;69.97
60852;BME280;48553;50.766;2.900;2023-09-30T12:43:57;101917.59;;;21.07;69.75
60852;BME280;48553;50.766;2.900;2023-09-30T12:46:58;101908.34;;;20.99;69.96
60852;BME280;48553;50.766;2.900;2023-09-30T12:49:58;101908.78;;;21.01;69.43
60852;BME280;48553;50.766;2.900;2023-09-30T12:52:58;101900.28;;;20.91;70.51
60852;BME280;48553;50.766;2.900;2023-09-30T12:56:00;101892.44;;;21.00;68.40
60852;BME280;48553;50.766;2.900;2023-09-30T12:59:00;101894.06;;;21.04;69.33
60852;BME280;48553;50.766;2.900;2023-09-30T13:02:00;101884.91;;;21.04;69.44
60852;BME280;48553;50.766;2.900;2023-09-30T13:05:01;101876.91;;;20.99;69.90
60852;BME280;48553;50.766;2.900;2023-09-30T13:08:01;101871.78;;;21.04;69.59
60852;BME280;48553;50.766;2.900;2023-09-30T13:11:02;101854.69;;;21.10;69.50
60852;BME280;48553;50.766;2.900;2023-09-30T13:14:03;101850.53;;;21.30;69.22
60852;BME280;48553;50.766;2.900;2023-09-30T13:17:04;101852.00;;;21.54;67.45
60852;BME280;48553;50.766;2.900;2023-09-30T13:20:04;101843.22;;;21.52;67.73
60852;BME280;48553;50.766;2.900;2023-09-30T13:23:05;101838.16;;;21.65;66.64
60852;BME280;48553;50.766;2.900;2023-09-30T13:26:05;101836.03;;;21.51;67.50
60852;BME280;48553;50.766;2.900;2023-09-30T13:29:06;101830.09;;;21.56;67.45
60852;BME280;48553;50.766;2.900;2023-09-30T13:32:10;101834.22;;;21.73;66.33
60852;BME280;48553;50.766;2.900;2023-09-30T13:35:10;101834.63;;;21.72;65.97
60852;BME280;48553;50.766;2.900;2023-09-30T13:38:11;101826.16;;;21.61;66.76
60852;BME280;48553;50.766;2.900;2023-09-30T13:41:11;101821.78;;;21.60;67.34
60852;BME280;48553;50.766;2.900;2023-09-30T13:44:15;101818.94;;;21.56;68.15
60852;BME280;48553;50.766;2.900;2023-09-30T13:47:16;101820.16;;;21.59;67.53
60852;BME280;48553;50.766;2.900;2023-09-30T13:50:17;101806.63;;;21.61;67.50
60852;BME280;48553;50.766;2.900;2023-09-30T13:53:17;101813.00;;;21.61;68.24
60852;BME280;48553;50.766;2.900;2023-09-30T13:56:17;101801.41;;;21.56;67.19
60852;BME280;48553;50.766;2.900;2023-09-30T13:59:18;101811.00;;;21.58;67.23
60852;BME280;48553;50.766;2.900;2023-09-30T14:02:18;101826.53;;;21.59;67.71
60852;BME280;48553;50.766;2.900;2023-09-30T14:05:19;101834.59;;;21.68;66.52
60852;BME280;48553;50.766;2.900;2023-09-30T14:08:20;101833.31;;;21.58;66.53
60852;BME280;48553;50.766;2.900;2023-09-30T14:11:20;101831.63;;;21.50;67.10
60852;BME280;48553;50.766;2.900;2023-09-30T14:14:21;101816.84;;;21.42;66.86
60852;BME280;48553;50.766;2.900;2023-09-30T14:17:21;101812.88;;;21.47;66.91
60852;BME280;48553;50.766;2.900;2023-09-30T14:20:22;101814.41;;;21.41;67.87
60852;BME280;48553;50.766;2.900;2023-09-30T14:23:23;101816.47;;;21.47;66.52
60852;BME280;48553;50.766;2.900;2023-09-30T14:26:24;101806.88;;;21.45;66.52
60852;BME280;48553;50.766;2.900;2023-09-30T14:29:24;101805.31;;;21.47;66.12
60852;BME280;48553;50.766;2.900;2023-09-30T14:32:25;101800.00;;;21.35;66.55
60852;BME280;48553;50.766;2.900;2023-09-30T14:35:26;101791.25;;;21.37;66.45
60852;BME280;48553;50.766;2.900;2023-09-30T14:38:26;101806.38;;;21.36;66.37
60852;BME280;48553;50.766;2.900;2023-09-30T14:41:26;101807.94;;;21.33;67.06
60852;BME280;48553;50.766;2.900;2023-09-30T14:44:27;101817.16;;;21.37;66.40
60852;BME280;48553;50.766;2.900;2023-09-30T14:47:27;101794.00;;;21.33;66.77
60852;BME280;48553;50.766;2.900;2023-09-30T14:50:28;101793.22;;;21.36;67.19
60852;BME280;48553;50.766;2.900;2023-09-30T14:53:28;101787.28;;;21.38;66.33
60852;BME280;48553;50.766;2.900;2023-09-30T14:56:28;101794.53;;;21.46;63.75
60852;BME280;48553;50.766;2.900;2023-09-30T14:59:32;101793.28;;;21.40;66.03
60852;BME280;48553;50.766;2.900;2023-09-30T15:02:33;101781.66;;;21.34;66.56
60852;BME280;48553;50.766;2.900;2023-09-30T15:05:33;101777.22;;;21.30;66.50
60852;BME280;48553;50.766;2.900;2023-09-30T15:08:34;101789.97;;;21.27;66.40
60852;BME280;48553;50.766;2.900;2023-09-30T15:11:34;101789.66;;;21.36;64.97
60852;BME280;48553;50.766;2.900;2023-09-30T15:14:35;101794.31;;;21.24;66.10
60852;BME280;48553;50.766;2.900;2023-09-30T15:17:35;101793.09;;;21.22;65.40
60852;BME280;48553;50.766;2.900;2023-09-30T15:20:38;101791.97;;;21.30;63.20
60852;BME280;48553;50.766;2.900;2023-09-30T15:23:40;101787.53;;;21.22;64.17
60852;BME280;48553;50.766;2.900;2023-09-30T15:26:41;101768.75;;;21.15;63.41
60852;BME280;48553;50.766;2.900;2023-09-30T15:29:41;101767.91;;;21.11;63.66
60852;BME280;48553;50.766;2.900;2023-09-30T15:32:42;101761.47;;;21.07;64.31
60852;BME280;48553;50.766;2.900;2023-09-30T15:35:42;101772.56;;;20.96;63.70
60852;BME280;48553;50.766;2.900;2023-09-30T15:38:42;101764.50;;;20.91;63.84
60852;BME280;48553;50.766;2.900;2023-09-30T15:41:43;101753.28;;;20.84;62.45
60852;BME280;48553;50.766;2.900;2023-09-30T15:44:43;101761.16;;;20.75;63.38
60852;BME280;48553;50.766;2.900;2023-09-30T15:47:44;101756.28;;;20.64;62.10
60852;BME280;48553;50.766;2.900;2023-09-30T15:50:45;101763.03;;;20.63;61.79
60852;BME280;48553;50.766;2.900;2023-09-30T15:53:45;101762.56;;;20.58;62.43